createdAt,value
2019-02-15T00:02:34.081Z,4.70
2019-02-15T00:10:50.339Z,4.70
2019-02-15T00:14:58.557Z,4.70
2019-02-15T00:19:12.151Z,4.70
2019-02-15T00:23:20.356Z,4.70
2019-02-15T00:27:28.596Z,4.70
2019-02-15T00:31:36.801Z,4.70
2019-02-15T00:35:45.060Z,4.70
2019-02-15T00:39:53.260Z,4.70
2019-02-15T00:44:01.481Z,4.70
2019-02-15T00:48:13.617Z,4.70
2019-02-15T00:52:26.928Z,4.70
2019-02-15T00:56:40.222Z,4.70
2019-02-15T01:00:52.666Z,4.70
2019-02-15T01:05:20.328Z,4.60
2019-02-15T01:09:35.845Z,4.60
2019-02-15T01:13:44.063Z,4.60
2019-02-15T01:17:52.240Z,4.60
2019-02-15T01:22:00.460Z,4.60
2019-02-15T01:26:42.266Z,4.60
2019-02-15T01:30:55.916Z,4.60
2019-02-15T01:35:13.526Z,4.60
2019-02-15T01:39:35.010Z,4.60
2019-02-15T01:43:57.326Z,4.60
2019-02-15T01:48:05.555Z,4.60
2019-02-15T01:52:13.842Z,4.60
2019-02-15T01:56:22.074Z,4.50
2019-02-15T02:00:32.361Z,4.50
2019-02-15T02:04:40.563Z,4.50
2019-02-15T02:08:48.795Z,4.50
2019-02-15T02:12:57.018Z,4.50
2019-02-15T02:17:05.266Z,4.50
2019-02-15T02:21:13.489Z,4.50
2019-02-15T02:25:21.713Z,4.50
2019-02-15T02:29:29.947Z,4.40
2019-02-15T02:33:38.168Z,4.50
2019-02-15T02:37:46.439Z,4.50
2019-02-15T02:41:54.774Z,4.50
2019-02-15T02:46:03.022Z,4.60
2019-02-15T02:50:11.248Z,4.60
2019-02-15T02:54:19.506Z,4.60
2019-02-15T03:02:35.734Z,4.50
2019-02-15T03:06:43.961Z,4.50
2019-02-15T03:10:52.226Z,4.50
2019-02-15T03:15:00.590Z,4.60
2019-02-15T03:19:08.679Z,4.60
2019-02-15T03:23:16.932Z,4.50
2019-02-15T03:27:25.175Z,4.40
2019-02-15T03:35:45.717Z,4.20
2019-02-15T03:39:57.813Z,4.20
2019-02-15T03:44:06.062Z,4.10
2019-02-15T03:48:14.321Z,4.00
2019-02-15T03:52:22.567Z,3.90
2019-02-15T03:56:30.819Z,3.90
2019-02-15T04:00:39.091Z,3.90
2019-02-15T04:04:47.321Z,3.90
2019-02-15T04:08:55.599Z,3.90
2019-02-15T04:13:03.851Z,3.90
2019-02-15T04:17:12.066Z,3.90
2019-02-15T04:21:20.325Z,3.90
2019-02-15T04:25:28.534Z,3.90
2019-02-15T04:29:36.770Z,3.90
2019-02-15T04:33:45.032Z,3.90
2019-02-15T04:37:53.293Z,3.80
2019-02-15T04:42:01.562Z,3.70
2019-02-15T04:46:09.916Z,3.60
2019-02-15T04:50:18.165Z,3.60
2019-02-15T04:58:34.438Z,3.50
2019-02-15T05:02:42.655Z,3.50
2019-02-15T05:06:50.905Z,3.50
2019-02-15T05:10:59.120Z,3.30
2019-02-15T05:15:07.459Z,3.30
2019-02-15T05:19:15.716Z,3.20
2019-02-15T05:23:23.944Z,3.20
2019-02-15T05:27:32.188Z,3.10
2019-02-15T05:31:40.447Z,3.10
2019-02-15T05:35:48.690Z,3.10
2019-02-15T05:39:56.937Z,3.10
2019-02-15T05:44:05.176Z,3.00
2019-02-15T05:48:13.450Z,3.00
2019-02-15T05:52:21.718Z,3.00
2019-02-15T05:56:30.058Z,2.90
2019-02-15T06:00:38.198Z,2.90
2019-02-15T06:04:46.446Z,2.90
2019-02-15T06:08:54.685Z,2.90
2019-02-15T06:13:02.911Z,2.90
2019-02-15T06:17:11.142Z,2.80
2019-02-15T06:21:19.435Z,2.80
2019-02-15T06:25:27.677Z,2.80
2019-02-15T06:29:35.963Z,2.70
2019-02-15T06:33:44.226Z,2.70
2019-02-15T06:37:52.478Z,2.60
2019-02-15T06:42:00.744Z,2.50
2019-02-15T06:46:09.004Z,2.50
2019-02-15T06:50:17.286Z,2.50
2019-02-15T06:54:25.542Z,2.60
2019-02-15T06:58:33.770Z,2.70
2019-02-15T07:03:01.299Z,2.70
2019-02-15T07:07:09.634Z,2.60
2019-02-15T07:11:17.832Z,2.50
2019-02-15T07:15:33.420Z,2.60
2019-02-15T07:19:34.356Z,2.60
2019-02-15T07:23:42.631Z,2.60
2019-02-15T07:27:50.879Z,2.70
2019-02-15T07:31:59.142Z,2.70
2019-02-15T07:36:07.425Z,2.70
2019-02-15T07:40:15.663Z,2.80
2019-02-15T07:44:23.913Z,2.70
2019-02-15T07:48:32.198Z,2.70
2019-02-15T07:52:40.435Z,2.70
2019-02-15T07:56:48.675Z,2.90
2019-02-15T08:00:56.961Z,3.00
2019-02-15T08:05:05.938Z,3.20
2019-02-15T08:09:14.143Z,3.40
2019-02-15T08:13:22.378Z,3.60
2019-02-15T08:17:30.627Z,3.80
2019-02-15T08:21:38.886Z,4.10
2019-02-15T08:25:47.154Z,4.30
2019-02-15T08:29:55.451Z,4.60
2019-02-15T08:34:03.726Z,4.80
2019-02-15T08:38:11.946Z,5.00
2019-02-15T08:42:20.233Z,5.30
2019-02-15T08:46:28.476Z,5.60
2019-02-15T08:50:36.706Z,5.80
2019-02-15T08:54:44.986Z,6.00
2019-02-15T08:58:53.199Z,6.20
2019-02-15T09:03:01.402Z,6.40
2019-02-15T09:07:09.699Z,6.60
2019-02-15T09:11:17.899Z,6.80
2019-02-15T09:15:26.118Z,7.00
2019-02-15T09:19:34.342Z,7.20
2019-02-15T09:23:42.561Z,7.30
2019-02-15T09:27:55.045Z,7.50
2019-02-15T09:32:03.283Z,7.60
2019-02-15T09:36:11.546Z,7.80
2019-02-15T09:40:19.743Z,7.90
2019-02-15T09:44:27.954Z,8.00
2019-02-15T09:48:36.198Z,8.10
2019-02-15T09:52:44.402Z,8.20
2019-02-15T09:56:52.671Z,8.20
2019-02-15T10:01:00.913Z,8.30
2019-02-15T10:05:09.136Z,8.30
2019-02-15T10:09:17.378Z,8.40
2019-02-15T10:13:25.659Z,8.50
2019-02-15T10:17:33.927Z,8.50
2019-02-15T10:21:42.215Z,8.60
2019-02-15T10:25:50.463Z,8.70
2019-02-15T10:29:58.682Z,8.70
2019-02-15T10:34:06.954Z,8.80
2019-02-15T10:38:15.186Z,9.00
2019-02-15T10:42:23.430Z,9.10
2019-02-15T10:46:37.660Z,9.20
2019-02-15T10:50:39.962Z,9.40
2019-02-15T10:54:48.191Z,9.60
2019-02-15T10:58:56.436Z,10.00
2019-02-15T11:03:04.654Z,10.20
2019-02-15T11:07:12.876Z,10.60
2019-02-15T11:11:21.165Z,10.80
2019-02-15T11:15:29.442Z,11.00
2019-02-15T11:19:37.747Z,11.30
2019-02-15T11:23:45.988Z,11.60
2019-02-15T11:27:54.221Z,11.70
2019-02-15T11:32:02.464Z,11.90
2019-02-15T11:36:10.774Z,12.00
2019-02-15T11:40:19.012Z,12.10
2019-02-15T11:44:27.245Z,12.20
2019-02-15T11:48:35.469Z,12.30
2019-02-15T11:52:43.697Z,12.40
2019-02-15T11:56:51.994Z,12.50
2019-02-15T12:01:00.223Z,12.50
2019-02-15T12:05:08.652Z,12.60
2019-02-15T12:09:16.906Z,12.60
2019-02-15T12:13:25.147Z,12.70
2019-02-15T12:17:33.338Z,12.80
2019-02-15T12:25:49.602Z,13.10
2019-02-15T12:29:57.806Z,13.10
2019-02-15T12:34:07.436Z,13.20
2019-02-15T12:38:14.399Z,13.30
2019-02-15T12:42:22.658Z,13.30
2019-02-15T12:46:30.953Z,13.40
2019-02-15T12:50:39.198Z,13.40
2019-02-15T12:54:47.465Z,13.50
2019-02-15T12:58:55.698Z,13.50
2019-02-15T13:03:03.950Z,13.40
2019-02-15T13:07:12.225Z,13.40
2019-02-15T13:11:20.492Z,13.40
2019-02-15T13:15:28.734Z,13.30
2019-02-15T13:23:45.018Z,13.30
2019-02-15T13:27:53.279Z,13.30
2019-02-15T13:32:01.535Z,13.40
2019-02-15T13:36:09.809Z,13.40
2019-02-15T13:40:18.113Z,13.40
2019-02-15T13:44:26.333Z,13.40
2019-02-15T13:48:34.580Z,13.50
2019-02-15T13:52:42.930Z,13.60
2019-02-15T13:56:51.186Z,13.60
2019-02-15T14:00:59.422Z,13.60
2019-02-15T14:05:09.670Z,13.60
2019-02-15T14:09:16.979Z,13.70
2019-02-15T14:13:25.222Z,13.70
2019-02-15T14:17:33.515Z,13.80
2019-02-15T14:21:44.335Z,13.80
2019-02-15T14:25:50.095Z,13.80
2019-02-15T14:29:58.330Z,13.80
2019-02-15T14:34:06.534Z,13.70
2019-02-15T14:38:14.843Z,13.70
2019-02-15T14:42:23.120Z,13.70
2019-02-15T14:46:31.385Z,13.70
2019-02-15T14:50:39.684Z,13.70
2019-02-15T14:54:47.913Z,13.70
2019-02-15T14:58:56.138Z,13.70
2019-02-15T15:03:04.361Z,13.70
2019-02-15T15:07:12.612Z,13.60
2019-02-15T15:11:20.879Z,13.50
2019-02-15T15:15:29.113Z,13.40
2019-02-15T15:19:37.407Z,13.40
2019-02-15T15:23:45.626Z,13.30
2019-02-15T15:27:53.877Z,13.30
2019-02-15T15:32:02.111Z,13.20
2019-02-15T15:36:10.421Z,13.10
2019-02-15T15:40:18.755Z,13.00
2019-02-15T15:44:27.029Z,12.90
2019-02-15T15:48:35.264Z,12.90
2019-02-15T15:52:43.506Z,12.80
2019-02-15T15:56:51.743Z,12.70
2019-02-15T16:00:59.948Z,12.80
2019-02-15T16:05:08.685Z,12.70
2019-02-15T16:09:17.006Z,12.70
2019-02-15T16:13:25.266Z,12.60
2019-02-15T16:17:33.502Z,12.50
2019-02-15T16:21:41.740Z,12.40
2019-02-15T16:25:49.954Z,12.30
2019-02-15T16:29:58.227Z,12.10
2019-02-15T16:34:06.478Z,12.00
2019-02-15T16:38:14.714Z,11.90
2019-02-15T16:42:22.951Z,11.90
2019-02-15T16:46:31.168Z,11.90
2019-02-15T16:50:39.418Z,11.90
2019-02-15T16:54:47.687Z,11.90
2019-02-15T16:58:55.913Z,11.80
2019-02-15T17:03:04.153Z,11.70
2019-02-15T17:07:12.431Z,11.50
2019-02-15T17:11:20.677Z,11.40
2019-02-15T17:15:28.933Z,11.30
2019-02-15T17:19:37.246Z,11.10
2019-02-15T17:23:45.521Z,11.00
2019-02-15T17:27:53.814Z,10.90
2019-02-15T17:32:02.022Z,10.80
2019-02-15T17:36:10.329Z,10.60
2019-02-15T17:40:18.618Z,10.50
2019-02-15T17:44:26.895Z,10.40
2019-02-15T17:48:35.101Z,10.20
2019-02-15T17:52:43.356Z,10.10
2019-02-15T17:56:51.589Z,9.90
2019-02-15T18:00:59.820Z,9.80
2019-02-15T18:05:09.133Z,9.80
2019-02-15T18:09:17.399Z,9.70
2019-02-15T18:13:25.670Z,9.60
2019-02-15T18:17:33.951Z,9.60
2019-02-15T18:21:42.203Z,9.50
2019-02-15T18:25:50.427Z,9.50
2019-02-15T18:29:58.659Z,9.40
2019-02-15T18:34:06.903Z,9.30
2019-02-15T18:38:15.126Z,9.30
2019-02-15T18:42:23.391Z,9.20
2019-02-15T18:46:31.618Z,9.10
2019-02-15T18:50:39.893Z,9.00
2019-02-15T18:54:48.174Z,8.90
2019-02-15T18:58:56.430Z,8.90
2019-02-15T19:03:04.688Z,8.90
2019-02-15T19:07:12.943Z,8.90
2019-02-15T19:15:29.246Z,9.10
2019-02-15T19:19:37.482Z,9.10
2019-02-15T19:23:45.739Z,9.20
2019-02-15T19:27:54.002Z,9.20
2019-02-15T19:32:02.252Z,9.20
2019-02-15T19:36:10.511Z,9.20
2019-02-15T19:40:18.846Z,9.20
2019-02-15T19:44:27.155Z,9.20
2019-02-15T19:48:35.389Z,9.30
2019-02-15T19:52:43.857Z,9.30
2019-02-15T19:56:52.076Z,9.30
2019-02-15T20:01:00.368Z,9.30
2019-02-15T20:05:08.581Z,9.30
2019-02-15T20:09:16.898Z,9.30
2019-02-15T20:13:25.160Z,9.30
2019-02-15T20:17:33.395Z,9.30
2019-02-15T20:29:57.624Z,9.30
2019-02-15T20:34:05.885Z,9.30
2019-02-15T20:38:14.186Z,9.20
2019-02-15T20:42:22.460Z,9.20
2019-02-15T20:46:30.762Z,9.20
2019-02-15T20:50:38.976Z,9.10
2019-02-15T20:54:47.214Z,9.10
2019-02-15T20:58:55.484Z,9.00
2019-02-15T21:03:03.727Z,9.00
2019-02-15T21:07:12.037Z,9.00
2019-02-15T21:11:20.283Z,8.90
2019-02-15T21:15:28.510Z,8.80
2019-02-15T21:19:36.785Z,8.80
2019-02-15T21:23:45.074Z,8.70
2019-02-15T21:27:53.326Z,8.70
2019-02-15T21:32:01.630Z,8.70
2019-02-15T21:36:09.842Z,8.60
2019-02-15T21:40:18.132Z,8.70
2019-02-15T21:44:26.351Z,8.60
2019-02-15T21:48:34.588Z,8.60
2019-02-15T21:52:44.488Z,8.60
2019-02-15T21:56:51.131Z,8.60
2019-02-15T22:01:01.380Z,8.50
2019-02-15T22:05:07.656Z,8.40
2019-02-15T22:09:15.895Z,8.30
2019-02-15T22:13:24.106Z,8.20
2019-02-15T22:17:32.351Z,8.20
2019-02-15T22:21:40.580Z,8.10
2019-02-15T22:25:48.806Z,8.10
2019-02-15T22:29:57.102Z,8.00
2019-02-15T22:34:05.338Z,8.00
2019-02-15T22:38:13.620Z,7.90
2019-02-15T22:42:21.912Z,7.90
2019-02-15T22:50:38.214Z,7.80
2019-02-15T22:54:46.455Z,7.70
2019-02-15T22:58:54.711Z,7.70
2019-02-15T23:03:02.950Z,7.60
2019-02-15T23:07:11.188Z,7.60
2019-02-15T23:11:19.439Z,7.50
2019-02-15T23:15:27.664Z,7.50
2019-02-15T23:19:35.919Z,7.50
2019-02-15T23:23:44.140Z,7.50
2019-02-15T23:27:52.364Z,7.50
2019-02-15T23:32:00.599Z,7.40
2019-02-15T23:36:08.852Z,7.30
2019-02-15T23:40:17.106Z,7.40
2019-02-15T23:44:25.379Z,7.40
2019-02-15T23:48:33.655Z,7.30
2019-02-15T23:52:41.923Z,7.30
2019-02-15T23:56:50.181Z,7.20
